sensor_id;sensor_type;location;lat;lon;timestamp;P1;durP1;ratioP1;P2;durP2;ratioP2
14858;SDS011;7521;51.700;6.874;2022-09-09T00:00:06;1.63;;;0.70;;
14858;SDS011;7521;51.700;6.874;2022-09-09T00:03:12;1.67;;;0.63;;
14858;SDS011;7521;51.700;6.874;2022-09-09T00:09:28;1.13;;;0.60;;
14858;SDS011;7521;51.700;6.874;2022-09-09T00:15:59;0.83;;;0.57;;
14858;SDS011;7521;51.700;6.874;2022-09-09T00:19:17;2.63;;;0.80;;
14858;SDS011;7521;51.700;6.874;2022-09-09T00:22:27;2.17;;;0.73;;
14858;SDS011;7521;51.700;6.874;2022-09-09T00:25:37;2.67;;;1.00;;
14858;SDS011;7521;51.700;6.874;2022-09-09T00:31:57;1.10;;;0.80;;
14858;SDS011;7521;51.700;6.874;2022-09-09T00:35:18;2.70;;;1.17;;
14858;SDS011;7521;51.700;6.874;2022-09-09T00:38:28;4.03;;;1.40;;
14858;SDS011;7521;51.700;6.874;2022-09-09T00:48:17;3.20;;;1.70;;
14858;SDS011;7521;51.700;6.874;2022-09-09T00:51:25;4.70;;;1.70;;
14858;SDS011;7521;51.700;6.874;2022-09-09T00:57:44;3.10;;;1.70;;
14858;SDS011;7521;51.700;6.874;2022-09-09T01:00:52;3.30;;;1.87;;
14858;SDS011;7521;51.700;6.874;2022-09-09T01:04:00;2.80;;;1.70;;
14858;SDS011;7521;51.700;6.874;2022-09-09T01:07:17;2.67;;;1.77;;
14858;SDS011;7521;51.700;6.874;2022-09-09T01:10:39;3.30;;;1.90;;
14858;SDS011;7521;51.700;6.874;2022-09-09T01:13:46;5.23;;;2.27;;
14858;SDS011;7521;51.700;6.874;2022-09-09T01:16:54;3.53;;;2.10;;
14858;SDS011;7521;51.700;6.874;2022-09-09T01:23:13;3.53;;;2.22;;
14858;SDS011;7521;51.700;6.874;2022-09-09T01:26:25;3.63;;;1.83;;
14858;SDS011;7521;51.700;6.874;2022-09-09T01:29:31;6.43;;;2.30;;
14858;SDS011;7521;51.700;6.874;2022-09-09T01:32:41;3.93;;;2.10;;
14858;SDS011;7521;51.700;6.874;2022-09-09T01:35:50;2.03;;;1.70;;
14858;SDS011;7521;51.700;6.874;2022-09-09T01:38:59;4.40;;;2.07;;
14858;SDS011;7521;51.700;6.874;2022-09-09T01:42:05;5.13;;;2.10;;
14858;SDS011;7521;51.700;6.874;2022-09-09T01:45:11;3.30;;;1.90;;
14858;SDS011;7521;51.700;6.874;2022-09-09T01:48:16;4.50;;;1.90;;
14858;SDS011;7521;51.700;6.874;2022-09-09T01:51:22;4.67;;;2.00;;
14858;SDS011;7521;51.700;6.874;2022-09-09T01:54:29;4.53;;;1.80;;
14858;SDS011;7521;51.700;6.874;2022-09-09T02:01:13;2.87;;;1.37;;
14858;SDS011;7521;51.700;6.874;2022-09-09T02:07:47;2.90;;;1.60;;
14858;SDS011;7521;51.700;6.874;2022-09-09T02:11:00;4.80;;;1.70;;
14858;SDS011;7521;51.700;6.874;2022-09-09T02:14:08;2.87;;;1.60;;
14858;SDS011;7521;51.700;6.874;2022-09-09T02:17:15;3.30;;;1.60;;
14858;SDS011;7521;51.700;6.874;2022-09-09T02:20:21;1.90;;;1.60;;
14858;SDS011;7521;51.700;6.874;2022-09-09T02:23:29;3.10;;;1.70;;
14858;SDS011;7521;51.700;6.874;2022-09-09T02:26:37;3.50;;;2.27;;
14858;SDS011;7521;51.700;6.874;2022-09-09T02:29:44;3.57;;;1.70;;
14858;SDS011;7521;51.700;6.874;2022-09-09T02:32:52;2.53;;;1.60;;
14858;SDS011;7521;51.700;6.874;2022-09-09T02:36:02;5.27;;;2.27;;
14858;SDS011;7521;51.700;6.874;2022-09-09T02:39:08;3.27;;;1.80;;
14858;SDS011;7521;51.700;6.874;2022-09-09T02:42:14;1.80;;;1.50;;
14858;SDS011;7521;51.700;6.874;2022-09-09T02:45:20;1.90;;;1.53;;
14858;SDS011;7521;51.700;6.874;2022-09-09T02:48:30;2.63;;;1.57;;
14858;SDS011;7521;51.700;6.874;2022-09-09T02:51:42;4.00;;;1.60;;
14858;SDS011;7521;51.700;6.874;2022-09-09T02:54:50;3.13;;;1.37;;
14858;SDS011;7521;51.700;6.874;2022-09-09T02:57:59;3.20;;;1.67;;
14858;SDS011;7521;51.700;6.874;2022-09-09T03:01:05;3.43;;;1.73;;
14858;SDS011;7521;51.700;6.874;2022-09-09T03:04:11;2.97;;;1.93;;
14858;SDS011;7521;51.700;6.874;2022-09-09T03:07:16;2.17;;;1.37;;
14858;SDS011;7521;51.700;6.874;2022-09-09T03:10:22;2.43;;;1.30;;
14858;SDS011;7521;51.700;6.874;2022-09-09T03:13:27;2.95;;;1.90;;
14858;SDS011;7521;51.700;6.874;2022-09-09T03:16:32;2.63;;;1.63;;
14858;SDS011;7521;51.700;6.874;2022-09-09T03:19:39;2.53;;;1.90;;
14858;SDS011;7521;51.700;6.874;2022-09-09T03:22:44;3.33;;;1.83;;
14858;SDS011;7521;51.700;6.874;2022-09-09T03:25:50;3.40;;;1.50;;
14858;SDS011;7521;51.700;6.874;2022-09-09T03:28:56;3.83;;;2.00;;
14858;SDS011;7521;51.700;6.874;2022-09-09T03:32:01;3.77;;;1.87;;
14858;SDS011;7521;51.700;6.874;2022-09-09T03:35:06;4.93;;;2.03;;
14858;SDS011;7521;51.700;6.874;2022-09-09T03:38:12;3.97;;;1.83;;
14858;SDS011;7521;51.700;6.874;2022-09-09T03:41:17;2.58;;;1.85;;
14858;SDS011;7521;51.700;6.874;2022-09-09T03:44:23;4.30;;;2.23;;
14858;SDS011;7521;51.700;6.874;2022-09-09T03:47:28;4.45;;;1.92;;
14858;SDS011;7521;51.700;6.874;2022-09-09T03:50:34;3.67;;;2.10;;
14858;SDS011;7521;51.700;6.874;2022-09-09T03:53:39;3.88;;;2.10;;
14858;SDS011;7521;51.700;6.874;2022-09-09T03:56:44;4.53;;;2.10;;
14858;SDS011;7521;51.700;6.874;2022-09-09T03:59:50;3.03;;;2.13;;
14858;SDS011;7521;51.700;6.874;2022-09-09T04:02:55;3.45;;;1.75;;
14858;SDS011;7521;51.700;6.874;2022-09-09T04:06:02;5.47;;;2.10;;
14858;SDS011;7521;51.700;6.874;2022-09-09T04:09:08;5.90;;;1.77;;
14858;SDS011;7521;51.700;6.874;2022-09-09T04:12:13;5.07;;;2.13;;
14858;SDS011;7521;51.700;6.874;2022-09-09T04:15:18;3.03;;;1.70;;
14858;SDS011;7521;51.700;6.874;2022-09-09T04:18:24;6.17;;;1.70;;
14858;SDS011;7521;51.700;6.874;2022-09-09T04:21:30;3.60;;;2.07;;
14858;SDS011;7521;51.700;6.874;2022-09-09T04:24:35;3.53;;;1.97;;
14858;SDS011;7521;51.700;6.874;2022-09-09T04:27:40;4.60;;;1.93;;
14858;SDS011;7521;51.700;6.874;2022-09-09T04:30:46;3.27;;;2.00;;
14858;SDS011;7521;51.700;6.874;2022-09-09T04:33:51;6.00;;;2.00;;
14858;SDS011;7521;51.700;6.874;2022-09-09T04:36:57;3.60;;;2.10;;
14858;SDS011;7521;51.700;6.874;2022-09-09T04:40:02;5.57;;;2.43;;
14858;SDS011;7521;51.700;6.874;2022-09-09T04:43:07;8.13;;;2.20;;
14858;SDS011;7521;51.700;6.874;2022-09-09T04:46:12;4.68;;;1.83;;
14858;SDS011;7521;51.700;6.874;2022-09-09T04:49:18;4.75;;;2.03;;
14858;SDS011;7521;51.700;6.874;2022-09-09T04:52:23;3.47;;;1.95;;
14858;SDS011;7521;51.700;6.874;2022-09-09T04:55:28;3.53;;;1.60;;
14858;SDS011;7521;51.700;6.874;2022-09-09T04:58:33;6.97;;;2.33;;
14858;SDS011;7521;51.700;6.874;2022-09-09T05:01:38;5.47;;;2.10;;
14858;SDS011;7521;51.700;6.874;2022-09-09T05:04:44;5.25;;;1.95;;
14858;SDS011;7521;51.700;6.874;2022-09-09T05:07:49;3.60;;;1.90;;
14858;SDS011;7521;51.700;6.874;2022-09-09T05:10:54;4.90;;;2.17;;
14858;SDS011;7521;51.700;6.874;2022-09-09T05:14:00;5.13;;;2.00;;
14858;SDS011;7521;51.700;6.874;2022-09-09T05:17:06;5.87;;;1.87;;
14858;SDS011;7521;51.700;6.874;2022-09-09T05:20:11;5.38;;;2.20;;
14858;SDS011;7521;51.700;6.874;2022-09-09T05:23:17;6.07;;;2.33;;
14858;SDS011;7521;51.700;6.874;2022-09-09T05:26:22;5.38;;;2.08;;
14858;SDS011;7521;51.700;6.874;2022-09-09T05:29:28;4.07;;;1.60;;
14858;SDS011;7521;51.700;6.874;2022-09-09T05:32:33;6.77;;;2.20;;
14858;SDS011;7521;51.700;6.874;2022-09-09T05:35:38;8.37;;;2.30;;
14858;SDS011;7521;51.700;6.874;2022-09-09T05:38:44;5.20;;;2.23;;
14858;SDS011;7521;51.700;6.874;2022-09-09T05:41:50;6.07;;;2.30;;
14858;SDS011;7521;51.700;6.874;2022-09-09T05:44:56;8.43;;;2.40;;
14858;SDS011;7521;51.700;6.874;2022-09-09T05:48:03;4.80;;;2.13;;
14858;SDS011;7521;51.700;6.874;2022-09-09T05:51:09;6.32;;;2.40;;
14858;SDS011;7521;51.700;6.874;2022-09-09T05:54:14;5.23;;;2.53;;
14858;SDS011;7521;51.700;6.874;2022-09-09T05:57:20;5.10;;;2.20;;
14858;SDS011;7521;51.700;6.874;2022-09-09T06:00:25;11.20;;;2.73;;
14858;SDS011;7521;51.700;6.874;2022-09-09T06:03:31;6.23;;;2.20;;
14858;SDS011;7521;51.700;6.874;2022-09-09T06:06:37;7.67;;;2.17;;
14858;SDS011;7521;51.700;6.874;2022-09-09T06:09:44;6.73;;;2.43;;
14858;SDS011;7521;51.700;6.874;2022-09-09T06:12:51;6.63;;;2.10;;
14858;SDS011;7521;51.700;6.874;2022-09-09T06:15:57;7.03;;;2.43;;
14858;SDS011;7521;51.700;6.874;2022-09-09T06:19:03;7.30;;;2.53;;
14858;SDS011;7521;51.700;6.874;2022-09-09T06:22:08;7.67;;;2.63;;
14858;SDS011;7521;51.700;6.874;2022-09-09T06:25:17;6.40;;;2.50;;
14858;SDS011;7521;51.700;6.874;2022-09-09T06:28:23;5.40;;;2.17;;
14858;SDS011;7521;51.700;6.874;2022-09-09T06:31:30;8.30;;;3.10;;
14858;SDS011;7521;51.700;6.874;2022-09-09T06:34:36;10.80;;;2.70;;
14858;SDS011;7521;51.700;6.874;2022-09-09T06:37:44;10.17;;;2.87;;
14858;SDS011;7521;51.700;6.874;2022-09-09T06:40:57;4.73;;;2.70;;
14858;SDS011;7521;51.700;6.874;2022-09-09T06:44:03;7.87;;;2.50;;
14858;SDS011;7521;51.700;6.874;2022-09-09T06:47:08;5.93;;;2.50;;
14858;SDS011;7521;51.700;6.874;2022-09-09T06:50:13;5.70;;;2.13;;
14858;SDS011;7521;51.700;6.874;2022-09-09T06:53:19;10.10;;;2.83;;
14858;SDS011;7521;51.700;6.874;2022-09-09T06:56:31;9.60;;;2.33;;
14858;SDS011;7521;51.700;6.874;2022-09-09T06:59:37;13.03;;;2.97;;
14858;SDS011;7521;51.700;6.874;2022-09-09T07:02:42;6.90;;;2.33;;
14858;SDS011;7521;51.700;6.874;2022-09-09T07:05:54;9.90;;;2.30;;
14858;SDS011;7521;51.700;6.874;2022-09-09T07:09:02;5.90;;;2.40;;
14858;SDS011;7521;51.700;6.874;2022-09-09T07:12:08;5.77;;;2.40;;
14858;SDS011;7521;51.700;6.874;2022-09-09T07:15:14;8.63;;;2.40;;
14858;SDS011;7521;51.700;6.874;2022-09-09T07:18:19;10.60;;;2.40;;
14858;SDS011;7521;51.700;6.874;2022-09-09T07:21:25;7.50;;;2.37;;
14858;SDS011;7521;51.700;6.874;2022-09-09T07:24:33;8.80;;;2.40;;
14858;SDS011;7521;51.700;6.874;2022-09-09T07:27:39;6.45;;;2.40;;
14858;SDS011;7521;51.700;6.874;2022-09-09T07:31:01;9.80;;;2.23;;
14858;SDS011;7521;51.700;6.874;2022-09-09T07:34:10;8.40;;;2.73;;
14858;SDS011;7521;51.700;6.874;2022-09-09T07:37:15;11.02;;;3.05;;
14858;SDS011;7521;51.700;6.874;2022-09-09T07:40:20;10.40;;;2.63;;
14858;SDS011;7521;51.700;6.874;2022-09-09T07:43:29;9.20;;;2.33;;
14858;SDS011;7521;51.700;6.874;2022-09-09T07:46:35;7.03;;;2.50;;
14858;SDS011;7521;51.700;6.874;2022-09-09T07:49:40;10.87;;;2.87;;
14858;SDS011;7521;51.700;6.874;2022-09-09T07:52:46;12.83;;;2.73;;
14858;SDS011;7521;51.700;6.874;2022-09-09T07:55:51;11.02;;;2.85;;
14858;SDS011;7521;51.700;6.874;2022-09-09T07:58:56;8.55;;;2.22;;
14858;SDS011;7521;51.700;6.874;2022-09-09T08:02:02;9.73;;;2.63;;
14858;SDS011;7521;51.700;6.874;2022-09-09T08:05:07;11.10;;;2.97;;
14858;SDS011;7521;51.700;6.874;2022-09-09T08:08:12;7.35;;;2.58;;
14858;SDS011;7521;51.700;6.874;2022-09-09T08:11:17;9.10;;;1.85;;
14858;SDS011;7521;51.700;6.874;2022-09-09T08:14:23;9.10;;;1.77;;
14858;SDS011;7521;51.700;6.874;2022-09-09T08:17:28;5.60;;;1.80;;
14858;SDS011;7521;51.700;6.874;2022-09-09T08:20:35;7.47;;;2.77;;
14858;SDS011;7521;51.700;6.874;2022-09-09T08:23:41;9.57;;;2.00;;
14858;SDS011;7521;51.700;6.874;2022-09-09T08:26:47;9.93;;;2.43;;
14858;SDS011;7521;51.700;6.874;2022-09-09T08:29:54;7.37;;;1.70;;
14858;SDS011;7521;51.700;6.874;2022-09-09T08:33:00;4.87;;;1.60;;
14858;SDS011;7521;51.700;6.874;2022-09-09T08:36:05;6.38;;;1.80;;
14858;SDS011;7521;51.700;6.874;2022-09-09T08:39:12;5.53;;;1.50;;
14858;SDS011;7521;51.700;6.874;2022-09-09T08:42:26;5.63;;;1.43;;
14858;SDS011;7521;51.700;6.874;2022-09-09T08:49:22;6.33;;;1.30;;
14858;SDS011;7521;51.700;6.874;2022-09-09T08:59:17;4.60;;;1.40;;
14858;SDS011;7521;51.700;6.874;2022-09-09T09:05:51;5.43;;;1.75;;
14858;SDS011;7521;51.700;6.874;2022-09-09T09:09:11;4.90;;;1.27;;
14858;SDS011;7521;51.700;6.874;2022-09-09T09:12:23;4.23;;;1.37;;
14858;SDS011;7521;51.700;6.874;2022-09-09T09:15:49;4.33;;;1.17;;
14858;SDS011;7521;51.700;6.874;2022-09-09T09:18:55;7.00;;;1.10;;
14858;SDS011;7521;51.700;6.874;2022-09-09T09:22:20;4.77;;;1.20;;
14858;SDS011;7521;51.700;6.874;2022-09-09T09:25:27;7.20;;;1.27;;
14858;SDS011;7521;51.700;6.874;2022-09-09T09:28:35;5.80;;;1.33;;
14858;SDS011;7521;51.700;6.874;2022-09-09T09:31:43;6.53;;;1.57;;
14858;SDS011;7521;51.700;6.874;2022-09-09T09:34:50;2.77;;;1.07;;
14858;SDS011;7521;51.700;6.874;2022-09-09T09:37:56;3.77;;;1.07;;
14858;SDS011;7521;51.700;6.874;2022-09-09T09:41:02;6.83;;;1.67;;
14858;SDS011;7521;51.700;6.874;2022-09-09T09:44:21;2.70;;;1.30;;
14858;SDS011;7521;51.700;6.874;2022-09-09T09:47:27;7.90;;;2.00;;
14858;SDS011;7521;51.700;6.874;2022-09-09T09:50:32;7.10;;;1.80;;
14858;SDS011;7521;51.700;6.874;2022-09-09T09:53:38;5.47;;;1.30;;
14858;SDS011;7521;51.700;6.874;2022-09-09T09:56:43;7.33;;;1.50;;
14858;SDS011;7521;51.700;6.874;2022-09-09T09:59:59;4.60;;;1.43;;
14858;SDS011;7521;51.700;6.874;2022-09-09T10:03:13;4.70;;;1.50;;
14858;SDS011;7521;51.700;6.874;2022-09-09T10:06:33;5.37;;;1.63;;
14858;SDS011;7521;51.700;6.874;2022-09-09T10:09:39;4.90;;;1.70;;
14858;SDS011;7521;51.700;6.874;2022-09-09T10:12:49;5.40;;;2.00;;
14858;SDS011;7521;51.700;6.874;2022-09-09T10:16:09;5.37;;;1.30;;
14858;SDS011;7521;51.700;6.874;2022-09-09T10:19:27;8.10;;;1.33;;
14858;SDS011;7521;51.700;6.874;2022-09-09T10:22:34;6.17;;;1.00;;
14858;SDS011;7521;51.700;6.874;2022-09-09T10:35:53;5.77;;;1.37;;
14858;SDS011;7521;51.700;6.874;2022-09-09T10:39:03;4.83;;;1.10;;
14858;SDS011;7521;51.700;6.874;2022-09-09T10:42:09;4.93;;;1.23;;
14858;SDS011;7521;51.700;6.874;2022-09-09T10:45:18;5.67;;;1.43;;
14858;SDS011;7521;51.700;6.874;2022-09-09T10:48:31;4.03;;;1.27;;
14858;SDS011;7521;51.700;6.874;2022-09-09T10:52:30;6.10;;;1.20;;
14858;SDS011;7521;51.700;6.874;2022-09-09T10:55:16;6.03;;;1.27;;
14858;SDS011;7521;51.700;6.874;2022-09-09T10:58:26;5.63;;;1.30;;
14858;SDS011;7521;51.700;6.874;2022-09-09T11:01:37;3.77;;;1.23;;
14858;SDS011;7521;51.700;6.874;2022-09-09T11:04:51;3.17;;;1.10;;
14858;SDS011;7521;51.700;6.874;2022-09-09T11:11:11;6.33;;;1.80;;
14858;SDS011;7521;51.700;6.874;2022-09-09T11:14:32;4.13;;;1.47;;
14858;SDS011;7521;51.700;6.874;2022-09-09T11:17:43;5.57;;;1.80;;
14858;SDS011;7521;51.700;6.874;2022-09-09T11:20:54;8.40;;;1.87;;
14858;SDS011;7521;51.700;6.874;2022-09-09T11:24:03;5.43;;;1.70;;
14858;SDS011;7521;51.700;6.874;2022-09-09T11:27:17;7.20;;;1.97;;
14858;SDS011;7521;51.700;6.874;2022-09-09T11:30:36;5.37;;;1.60;;
14858;SDS011;7521;51.700;6.874;2022-09-09T11:43:10;3.03;;;1.08;;
14858;SDS011;7521;51.700;6.874;2022-09-09T11:46:18;3.27;;;0.90;;
14858;SDS011;7521;51.700;6.874;2022-09-09T11:49:26;4.10;;;0.93;;
14858;SDS011;7521;51.700;6.874;2022-09-09T11:52:37;5.20;;;1.07;;
14858;SDS011;7521;51.700;6.874;2022-09-09T11:55:42;5.33;;;1.20;;
14858;SDS011;7521;51.700;6.874;2022-09-09T11:58:59;6.88;;;1.60;;
14858;SDS011;7521;51.700;6.874;2022-09-09T12:02:14;2.20;;;0.90;;
14858;SDS011;7521;51.700;6.874;2022-09-09T12:05:22;8.40;;;1.60;;
14858;SDS011;7521;51.700;6.874;2022-09-09T12:08:28;3.33;;;1.07;;
14858;SDS011;7521;51.700;6.874;2022-09-09T12:11:34;6.17;;;1.00;;
14858;SDS011;7521;51.700;6.874;2022-09-09T12:20:58;4.50;;;1.20;;
14858;SDS011;7521;51.700;6.874;2022-09-09T12:24:10;5.33;;;1.30;;
14858;SDS011;7521;51.700;6.874;2022-09-09T12:27:20;3.20;;;1.10;;
14858;SDS011;7521;51.700;6.874;2022-09-09T12:30:32;3.33;;;1.20;;
14858;SDS011;7521;51.700;6.874;2022-09-09T12:33:40;4.73;;;1.00;;
14858;SDS011;7521;51.700;6.874;2022-09-09T12:36:52;4.30;;;1.00;;
14858;SDS011;7521;51.700;6.874;2022-09-09T12:40:00;3.70;;;0.90;;
14858;SDS011;7521;51.700;6.874;2022-09-09T12:43:19;3.80;;;0.80;;
14858;SDS011;7521;51.700;6.874;2022-09-09T12:46:29;3.00;;;0.70;;
14858;SDS011;7521;51.700;6.874;2022-09-09T12:49:37;2.93;;;0.83;;
14858;SDS011;7521;51.700;6.874;2022-09-09T12:52:44;3.50;;;0.73;;
14858;SDS011;7521;51.700;6.874;2022-09-09T12:56:17;1.17;;;0.53;;
14858;SDS011;7521;51.700;6.874;2022-09-09T12:59:26;2.53;;;0.60;;
14858;SDS011;7521;51.700;6.874;2022-09-09T13:02:36;2.53;;;0.77;;
14858;SDS011;7521;51.700;6.874;2022-09-09T13:05:50;5.53;;;1.27;;
14858;SDS011;7521;51.700;6.874;2022-09-09T13:08:56;2.93;;;0.67;;
14858;SDS011;7521;51.700;6.874;2022-09-09T13:12:02;4.10;;;0.83;;
14858;SDS011;7521;51.700;6.874;2022-09-09T13:15:12;3.23;;;1.10;;
14858;SDS011;7521;51.700;6.874;2022-09-09T13:18:21;5.00;;;1.23;;
14858;SDS011;7521;51.700;6.874;2022-09-09T13:21:34;3.93;;;1.27;;
14858;SDS011;7521;51.700;6.874;2022-09-09T13:24:39;3.10;;;1.23;;
14858;SDS011;7521;51.700;6.874;2022-09-09T13:27:51;2.40;;;1.37;;
14858;SDS011;7521;51.700;6.874;2022-09-09T13:30:59;4.33;;;1.57;;
14858;SDS011;7521;51.700;6.874;2022-09-09T13:34:22;3.17;;;1.23;;
14858;SDS011;7521;51.700;6.874;2022-09-09T13:37:36;4.67;;;1.27;;
14858;SDS011;7521;51.700;6.874;2022-09-09T13:40:55;2.90;;;1.10;;
14858;SDS011;7521;51.700;6.874;2022-09-09T13:44:02;4.33;;;1.30;;
14858;SDS011;7521;51.700;6.874;2022-09-09T13:50:20;5.10;;;1.20;;
14858;SDS011;7521;51.700;6.874;2022-09-09T13:53:26;3.97;;;1.17;;
14858;SDS011;7521;51.700;6.874;2022-09-09T13:56:35;2.83;;;1.00;;
14858;SDS011;7521;51.700;6.874;2022-09-09T13:59:40;4.37;;;1.20;;
14858;SDS011;7521;51.700;6.874;2022-09-09T14:02:46;4.30;;;1.20;;
14858;SDS011;7521;51.700;6.874;2022-09-09T14:05:51;2.73;;;1.10;;
14858;SDS011;7521;51.700;6.874;2022-09-09T14:08:59;3.63;;;1.10;;
14858;SDS011;7521;51.700;6.874;2022-09-09T14:12:04;5.57;;;1.30;;
14858;SDS011;7521;51.700;6.874;2022-09-09T14:15:10;5.80;;;1.13;;
14858;SDS011;7521;51.700;6.874;2022-09-09T14:18:16;4.80;;;1.37;;
14858;SDS011;7521;51.700;6.874;2022-09-09T14:21:22;4.47;;;1.27;;
14858;SDS011;7521;51.700;6.874;2022-09-09T14:24:27;2.07;;;1.13;;
14858;SDS011;7521;51.700;6.874;2022-09-09T14:27:32;2.67;;;0.87;;
14858;SDS011;7521;51.700;6.874;2022-09-09T14:30:38;3.23;;;0.93;;
14858;SDS011;7521;51.700;6.874;2022-09-09T14:33:44;3.57;;;1.00;;
14858;SDS011;7521;51.700;6.874;2022-09-09T14:36:49;2.27;;;1.10;;
14858;SDS011;7521;51.700;6.874;2022-09-09T14:39:55;2.20;;;0.90;;
14858;SDS011;7521;51.700;6.874;2022-09-09T14:43:01;4.93;;;1.20;;
14858;SDS011;7521;51.700;6.874;2022-09-09T14:46:07;3.40;;;0.90;;
14858;SDS011;7521;51.700;6.874;2022-09-09T14:49:15;1.87;;;0.60;;
14858;SDS011;7521;51.700;6.874;2022-09-09T14:52:20;2.67;;;0.83;;
14858;SDS011;7521;51.700;6.874;2022-09-09T14:55:26;3.60;;;1.13;;
14858;SDS011;7521;51.700;6.874;2022-09-09T14:58:33;4.87;;;0.90;;
14858;SDS011;7521;51.700;6.874;2022-09-09T15:01:39;3.53;;;0.93;;
14858;SDS011;7521;51.700;6.874;2022-09-09T15:04:44;3.75;;;1.05;;
14858;SDS011;7521;51.700;6.874;2022-09-09T15:07:50;1.97;;;0.60;;
14858;SDS011;7521;51.700;6.874;2022-09-09T15:10:59;2.47;;;0.80;;
14858;SDS011;7521;51.700;6.874;2022-09-09T15:14:06;1.83;;;0.70;;
14858;SDS011;7521;51.700;6.874;2022-09-09T15:17:12;2.43;;;0.77;;
14858;SDS011;7521;51.700;6.874;2022-09-09T15:20:17;4.03;;;0.80;;
14858;SDS011;7521;51.700;6.874;2022-09-09T15:23:22;5.75;;;1.00;;
14858;SDS011;7521;51.700;6.874;2022-09-09T15:26:27;2.58;;;0.70;;
14858;SDS011;7521;51.700;6.874;2022-09-09T15:29:34;1.37;;;0.70;;
14858;SDS011;7521;51.700;6.874;2022-09-09T15:32:39;4.43;;;0.87;;
14858;SDS011;7521;51.700;6.874;2022-09-09T15:35:44;2.47;;;0.77;;
14858;SDS011;7521;51.700;6.874;2022-09-09T15:38:50;3.17;;;0.80;;
14858;SDS011;7521;51.700;6.874;2022-09-09T15:41:55;3.70;;;0.90;;
14858;SDS011;7521;51.700;6.874;2022-09-09T15:45:01;2.70;;;0.80;;
14858;SDS011;7521;51.700;6.874;2022-09-09T15:48:06;2.28;;;0.85;;
14858;SDS011;7521;51.700;6.874;2022-09-09T15:51:12;3.03;;;1.13;;
14858;SDS011;7521;51.700;6.874;2022-09-09T15:54:19;3.80;;;0.80;;
14858;SDS011;7521;51.700;6.874;2022-09-09T15:57:25;2.40;;;1.17;;
14858;SDS011;7521;51.700;6.874;2022-09-09T16:00:31;4.63;;;0.90;;
14858;SDS011;7521;51.700;6.874;2022-09-09T16:03:39;2.85;;;1.13;;
14858;SDS011;7521;51.700;6.874;2022-09-09T16:06:46;3.77;;;1.30;;
14858;SDS011;7521;51.700;6.874;2022-09-09T16:09:51;4.37;;;2.00;;
14858;SDS011;7521;51.700;6.874;2022-09-09T16:12:57;4.10;;;1.90;;
14858;SDS011;7521;51.700;6.874;2022-09-09T16:16:03;4.03;;;1.60;;
14858;SDS011;7521;51.700;6.874;2022-09-09T16:19:15;3.70;;;1.57;;
14858;SDS011;7521;51.700;6.874;2022-09-09T16:22:20;2.88;;;1.27;;
14858;SDS011;7521;51.700;6.874;2022-09-09T16:25:25;2.88;;;1.75;;
14858;SDS011;7521;51.700;6.874;2022-09-09T16:28:30;5.67;;;1.97;;
14858;SDS011;7521;51.700;6.874;2022-09-09T16:31:36;3.70;;;1.60;;
14858;SDS011;7521;51.700;6.874;2022-09-09T16:34:41;7.57;;;1.70;;
14858;SDS011;7521;51.700;6.874;2022-09-09T16:37:47;2.77;;;1.57;;
14858;SDS011;7521;51.700;6.874;2022-09-09T16:40:58;4.43;;;1.70;;
14858;SDS011;7521;51.700;6.874;2022-09-09T16:44:04;4.77;;;2.03;;
14858;SDS011;7521;51.700;6.874;2022-09-09T16:47:09;3.43;;;2.00;;
14858;SDS011;7521;51.700;6.874;2022-09-09T16:50:14;4.38;;;2.17;;
14858;SDS011;7521;51.700;6.874;2022-09-09T16:53:20;6.13;;;2.00;;
14858;SDS011;7521;51.700;6.874;2022-09-09T16:56:25;3.83;;;2.03;;
14858;SDS011;7521;51.700;6.874;2022-09-09T16:59:31;2.93;;;1.63;;
14858;SDS011;7521;51.700;6.874;2022-09-09T17:02:37;4.27;;;1.93;;
14858;SDS011;7521;51.700;6.874;2022-09-09T17:05:43;5.20;;;1.67;;
14858;SDS011;7521;51.700;6.874;2022-09-09T17:08:55;2.60;;;1.27;;
14858;SDS011;7521;51.700;6.874;2022-09-09T17:12:01;4.37;;;2.87;;
14858;SDS011;7521;51.700;6.874;2022-09-09T17:15:06;4.17;;;1.80;;
14858;SDS011;7521;51.700;6.874;2022-09-09T17:18:12;4.47;;;1.70;;
14858;SDS011;7521;51.700;6.874;2022-09-09T17:21:18;2.00;;;1.27;;
14858;SDS011;7521;51.700;6.874;2022-09-09T17:24:24;2.57;;;0.97;;
14858;SDS011;7521;51.700;6.874;2022-09-09T17:27:31;2.93;;;1.27;;
14858;SDS011;7521;51.700;6.874;2022-09-09T17:30:38;4.00;;;1.10;;
14858;SDS011;7521;51.700;6.874;2022-09-09T17:33:44;2.70;;;0.90;;
14858;SDS011;7521;51.700;6.874;2022-09-09T17:36:50;1.53;;;0.80;;
14858;SDS011;7521;51.700;6.874;2022-09-09T17:39:57;2.87;;;1.10;;
14858;SDS011;7521;51.700;6.874;2022-09-09T17:43:03;4.60;;;0.90;;
14858;SDS011;7521;51.700;6.874;2022-09-09T17:46:18;4.75;;;1.20;;
14858;SDS011;7521;51.700;6.874;2022-09-09T17:49:26;3.13;;;1.10;;
14858;SDS011;7521;51.700;6.874;2022-09-09T17:52:31;4.10;;;1.27;;
14858;SDS011;7521;51.700;6.874;2022-09-09T17:55:36;2.37;;;1.00;;
14858;SDS011;7521;51.700;6.874;2022-09-09T17:58:41;2.33;;;1.17;;
14858;SDS011;7521;51.700;6.874;2022-09-09T18:01:47;2.63;;;1.33;;
14858;SDS011;7521;51.700;6.874;2022-09-09T18:04:53;4.27;;;1.40;;
14858;SDS011;7521;51.700;6.874;2022-09-09T18:07:58;2.50;;;1.17;;
14858;SDS011;7521;51.700;6.874;2022-09-09T18:11:04;4.20;;;1.30;;
14858;SDS011;7521;51.700;6.874;2022-09-09T18:14:10;5.87;;;1.80;;
14858;SDS011;7521;51.700;6.874;2022-09-09T18:17:16;2.83;;;1.33;;
14858;SDS011;7521;51.700;6.874;2022-09-09T18:20:21;3.47;;;1.80;;
14858;SDS011;7521;51.700;6.874;2022-09-09T18:23:27;5.72;;;1.58;;
14858;SDS011;7521;51.700;6.874;2022-09-09T18:26:33;4.03;;;1.77;;
14858;SDS011;7521;51.700;6.874;2022-09-09T18:29:38;2.93;;;1.33;;
14858;SDS011;7521;51.700;6.874;2022-09-09T18:32:44;2.93;;;1.70;;
14858;SDS011;7521;51.700;6.874;2022-09-09T18:35:50;3.10;;;1.57;;
14858;SDS011;7521;51.700;6.874;2022-09-09T18:38:56;5.17;;;1.67;;
14858;SDS011;7521;51.700;6.874;2022-09-09T18:42:02;4.00;;;2.03;;
14858;SDS011;7521;51.700;6.874;2022-09-09T18:45:09;5.37;;;3.70;;
14858;SDS011;7521;51.700;6.874;2022-09-09T18:48:14;4.53;;;3.47;;
14858;SDS011;7521;51.700;6.874;2022-09-09T18:51:20;7.93;;;3.65;;
14858;SDS011;7521;51.700;6.874;2022-09-09T18:54:26;5.77;;;2.60;;
14858;SDS011;7521;51.700;6.874;2022-09-09T18:57:37;4.17;;;2.43;;
14858;SDS011;7521;51.700;6.874;2022-09-09T19:00:44;6.13;;;3.40;;
14858;SDS011;7521;51.700;6.874;2022-09-09T19:03:50;7.43;;;4.17;;
14858;SDS011;7521;51.700;6.874;2022-09-09T19:06:55;8.43;;;4.40;;
14858;SDS011;7521;51.700;6.874;2022-09-09T19:10:03;6.30;;;4.23;;
14858;SDS011;7521;51.700;6.874;2022-09-09T19:13:08;6.70;;;4.10;;
14858;SDS011;7521;51.700;6.874;2022-09-09T19:16:14;6.38;;;3.95;;
14858;SDS011;7521;51.700;6.874;2022-09-09T19:19:20;7.15;;;3.20;;
14858;SDS011;7521;51.700;6.874;2022-09-09T19:22:26;7.13;;;2.73;;
14858;SDS011;7521;51.700;6.874;2022-09-09T19:25:36;6.27;;;2.90;;
14858;SDS011;7521;51.700;6.874;2022-09-09T19:28:42;3.43;;;2.77;;
14858;SDS011;7521;51.700;6.874;2022-09-09T19:31:50;4.83;;;2.57;;
14858;SDS011;7521;51.700;6.874;2022-09-09T19:34:56;4.20;;;2.20;;
14858;SDS011;7521;51.700;6.874;2022-09-09T19:38:01;2.43;;;1.40;;
14858;SDS011;7521;51.700;6.874;2022-09-09T19:41:07;3.15;;;1.30;;
14858;SDS011;7521;51.700;6.874;2022-09-09T19:44:13;1.73;;;1.00;;
14858;SDS011;7521;51.700;6.874;2022-09-09T19:47:19;2.47;;;1.23;;
14858;SDS011;7521;51.700;6.874;2022-09-09T19:50:24;2.45;;;1.55;;
14858;SDS011;7521;51.700;6.874;2022-09-09T19:53:30;3.45;;;1.35;;
14858;SDS011;7521;51.700;6.874;2022-09-09T19:56:36;3.17;;;1.33;;
14858;SDS011;7521;51.700;6.874;2022-09-09T19:59:42;4.50;;;1.20;;
14858;SDS011;7521;51.700;6.874;2022-09-09T20:02:47;2.43;;;1.20;;
14858;SDS011;7521;51.700;6.874;2022-09-09T20:05:55;2.20;;;1.30;;
14858;SDS011;7521;51.700;6.874;2022-09-09T20:09:01;1.83;;;1.50;;
14858;SDS011;7521;51.700;6.874;2022-09-09T20:12:06;2.70;;;1.47;;
14858;SDS011;7521;51.700;6.874;2022-09-09T20:15:12;3.67;;;1.30;;
14858;SDS011;7521;51.700;6.874;2022-09-09T20:18:17;3.00;;;1.53;;
14858;SDS011;7521;51.700;6.874;2022-09-09T20:21:24;2.25;;;1.67;;